sensor_id;sensor_type;location;lat;lon;timestamp;P1;durP1;ratioP1;P2;durP2;ratioP2
1885;SDS011;943;51.568;6.998;2024-02-15T00:00:58;5.80;;;2.50;;
1885;SDS011;943;51.568;6.998;2024-02-15T00:03:28;3.43;;;2.70;;
1885;SDS011;943;51.568;6.998;2024-02-15T00:05:59;7.03;;;3.00;;
1885;SDS011;943;51.568;6.998;2024-02-15T00:08:30;8.27;;;3.60;;
1885;SDS011;943;51.568;6.998;2024-02-15T00:11:03;6.30;;;3.80;;
1885;SDS011;943;51.568;6.998;2024-02-15T00:13:32;5.50;;;2.93;;
1885;SDS011;943;51.568;6.998;2024-02-15T00:16:03;6.23;;;3.10;;
1885;SDS011;943;51.568;6.998;2024-02-15T00:18:33;12.53;;;3.93;;
1885;SDS011;943;51.568;6.998;2024-02-15T00:21:03;6.63;;;4.00;;
1885;SDS011;943;51.568;6.998;2024-02-15T00:23:32;7.00;;;3.93;;
1885;SDS011;943;51.568;6.998;2024-02-15T00:26:00;5.07;;;4.27;;
1885;SDS011;943;51.568;6.998;2024-02-15T00:28:29;7.87;;;4.53;;
1885;SDS011;943;51.568;6.998;2024-02-15T00:30:58;8.40;;;3.87;;
1885;SDS011;943;51.568;6.998;2024-02-15T00:33:26;7.17;;;4.00;;
1885;SDS011;943;51.568;6.998;2024-02-15T00:35:56;5.87;;;4.37;;
1885;SDS011;943;51.568;6.998;2024-02-15T00:38:26;6.90;;;3.20;;
1885;SDS011;943;51.568;6.998;2024-02-15T00:40:55;8.73;;;3.00;;
1885;SDS011;943;51.568;6.998;2024-02-15T00:43:24;7.43;;;3.40;;
1885;SDS011;943;51.568;6.998;2024-02-15T00:45:56;5.90;;;3.30;;
1885;SDS011;943;51.568;6.998;2024-02-15T00:48:26;10.03;;;4.53;;
1885;SDS011;943;51.568;6.998;2024-02-15T00:51:00;7.77;;;3.87;;
1885;SDS011;943;51.568;6.998;2024-02-15T00:53:28;14.03;;;6.43;;
1885;SDS011;943;51.568;6.998;2024-02-15T00:55:57;14.90;;;4.67;;
1885;SDS011;943;51.568;6.998;2024-02-15T00:58:26;5.73;;;3.47;;
1885;SDS011;943;51.568;6.998;2024-02-15T01:00:55;9.00;;;4.60;;
1885;SDS011;943;51.568;6.998;2024-02-15T01:03:24;8.80;;;3.87;;
1885;SDS011;943;51.568;6.998;2024-02-15T01:06:00;5.10;;;3.07;;
1885;SDS011;943;51.568;6.998;2024-02-15T01:08:30;4.97;;;3.40;;
1885;SDS011;943;51.568;6.998;2024-02-15T01:11:01;7.07;;;4.37;;
1885;SDS011;943;51.568;6.998;2024-02-15T01:13:35;7.13;;;4.13;;
1885;SDS011;943;51.568;6.998;2024-02-15T01:16:05;6.77;;;4.43;;
1885;SDS011;943;51.568;6.998;2024-02-15T01:18:36;11.87;;;4.00;;
1885;SDS011;943;51.568;6.998;2024-02-15T01:21:06;4.00;;;2.83;;
1885;SDS011;943;51.568;6.998;2024-02-15T01:23:38;13.20;;;5.57;;
1885;SDS011;943;51.568;6.998;2024-02-15T01:26:08;5.87;;;4.07;;
1885;SDS011;943;51.568;6.998;2024-02-15T01:28:41;4.87;;;2.80;;
1885;SDS011;943;51.568;6.998;2024-02-15T01:31:14;6.50;;;4.13;;
1885;SDS011;943;51.568;6.998;2024-02-15T01:33:45;4.43;;;3.30;;
1885;SDS011;943;51.568;6.998;2024-02-15T01:36:16;6.07;;;3.23;;
1885;SDS011;943;51.568;6.998;2024-02-15T01:38:47;9.70;;;2.87;;
1885;SDS011;943;51.568;6.998;2024-02-15T01:41:17;9.77;;;4.03;;
1885;SDS011;943;51.568;6.998;2024-02-15T01:43:48;4.27;;;2.47;;
1885;SDS011;943;51.568;6.998;2024-02-15T01:46:19;4.60;;;3.53;;
1885;SDS011;943;51.568;6.998;2024-02-15T01:48:49;5.27;;;3.40;;
1885;SDS011;943;51.568;6.998;2024-02-15T01:51:19;11.70;;;3.50;;
1885;SDS011;943;51.568;6.998;2024-02-15T01:53:47;5.60;;;2.93;;
1885;SDS011;943;51.568;6.998;2024-02-15T01:56:20;15.20;;;4.30;;
1885;SDS011;943;51.568;6.998;2024-02-15T01:58:53;9.80;;;3.03;;
1885;SDS011;943;51.568;6.998;2024-02-15T02:01:31;6.80;;;3.87;;
1885;SDS011;943;51.568;6.998;2024-02-15T02:04:04;7.57;;;3.50;;
1885;SDS011;943;51.568;6.998;2024-02-15T02:06:32;11.33;;;4.53;;
1885;SDS011;943;51.568;6.998;2024-02-15T02:09:01;9.80;;;3.73;;
1885;SDS011;943;51.568;6.998;2024-02-15T02:11:33;6.53;;;4.07;;
1885;SDS011;943;51.568;6.998;2024-02-15T02:14:01;5.80;;;4.13;;
1885;SDS011;943;51.568;6.998;2024-02-15T02:16:32;6.20;;;3.20;;
1885;SDS011;943;51.568;6.998;2024-02-15T02:19:06;6.57;;;2.77;;
1885;SDS011;943;51.568;6.998;2024-02-15T02:21:41;6.20;;;4.00;;
1885;SDS011;943;51.568;6.998;2024-02-15T02:24:17;9.70;;;4.83;;
1885;SDS011;943;51.568;6.998;2024-02-15T02:26:52;4.23;;;2.27;;
1885;SDS011;943;51.568;6.998;2024-02-15T02:29:23;11.07;;;3.67;;
1885;SDS011;943;51.568;6.998;2024-02-15T02:32:03;4.20;;;2.80;;
1885;SDS011;943;51.568;6.998;2024-02-15T02:34:35;4.13;;;2.80;;
1885;SDS011;943;51.568;6.998;2024-02-15T02:37:06;3.00;;;1.77;;
1885;SDS011;943;51.568;6.998;2024-02-15T02:39:42;3.03;;;2.00;;
1885;SDS011;943;51.568;6.998;2024-02-15T02:42:12;5.17;;;1.90;;
1885;SDS011;943;51.568;6.998;2024-02-15T02:44:43;4.63;;;1.93;;
1885;SDS011;943;51.568;6.998;2024-02-15T02:47:12;4.83;;;2.53;;
1885;SDS011;943;51.568;6.998;2024-02-15T02:49:41;5.73;;;1.83;;
1885;SDS011;943;51.568;6.998;2024-02-15T02:52:10;5.33;;;1.97;;
1885;SDS011;943;51.568;6.998;2024-02-15T02:54:40;8.10;;;2.90;;
1885;SDS011;943;51.568;6.998;2024-02-15T02:57:10;3.40;;;1.83;;
1885;SDS011;943;51.568;6.998;2024-02-15T02:59:40;4.27;;;1.40;;
1885;SDS011;943;51.568;6.998;2024-02-15T03:02:12;4.00;;;1.47;;
1885;SDS011;943;51.568;6.998;2024-02-15T03:04:41;5.50;;;2.90;;
1885;SDS011;943;51.568;6.998;2024-02-15T03:07:10;11.77;;;1.67;;
1885;SDS011;943;51.568;6.998;2024-02-15T03:09:46;11.40;;;3.07;;
1885;SDS011;943;51.568;6.998;2024-02-15T03:12:15;3.70;;;1.93;;
1885;SDS011;943;51.568;6.998;2024-02-15T03:14:46;3.70;;;1.93;;
1885;SDS011;943;51.568;6.998;2024-02-15T03:17:15;5.53;;;2.60;;
1885;SDS011;943;51.568;6.998;2024-02-15T03:19:45;3.70;;;2.70;;
1885;SDS011;943;51.568;6.998;2024-02-15T03:22:16;3.43;;;1.83;;
1885;SDS011;943;51.568;6.998;2024-02-15T03:24:45;3.53;;;2.33;;
1885;SDS011;943;51.568;6.998;2024-02-15T03:27:15;3.07;;;1.90;;
1885;SDS011;943;51.568;6.998;2024-02-15T03:29:50;3.87;;;1.90;;
1885;SDS011;943;51.568;6.998;2024-02-15T03:32:27;3.83;;;2.17;;
1885;SDS011;943;51.568;6.998;2024-02-15T03:34:57;3.50;;;1.50;;
1885;SDS011;943;51.568;6.998;2024-02-15T03:37:28;2.70;;;1.90;;
1885;SDS011;943;51.568;6.998;2024-02-15T03:39:57;5.10;;;2.20;;
1885;SDS011;943;51.568;6.998;2024-02-15T03:42:26;5.67;;;2.60;;
1885;SDS011;943;51.568;6.998;2024-02-15T03:44:57;2.63;;;1.20;;
1885;SDS011;943;51.568;6.998;2024-02-15T03:47:26;2.40;;;1.17;;
1885;SDS011;943;51.568;6.998;2024-02-15T03:49:57;5.20;;;2.03;;
1885;SDS011;943;51.568;6.998;2024-02-15T03:52:27;2.83;;;1.00;;
1885;SDS011;943;51.568;6.998;2024-02-15T03:54:58;5.10;;;2.33;;
1885;SDS011;943;51.568;6.998;2024-02-15T03:57:29;3.27;;;1.60;;
1885;SDS011;943;51.568;6.998;2024-02-15T04:00:01;4.07;;;2.67;;
1885;SDS011;943;51.568;6.998;2024-02-15T04:02:35;3.37;;;1.90;;
1885;SDS011;943;51.568;6.998;2024-02-15T04:05:09;4.40;;;2.33;;
1885;SDS011;943;51.568;6.998;2024-02-15T04:07:40;3.50;;;2.60;;
1885;SDS011;943;51.568;6.998;2024-02-15T04:10:10;2.60;;;1.50;;
1885;SDS011;943;51.568;6.998;2024-02-15T04:12:41;2.80;;;1.20;;
1885;SDS011;943;51.568;6.998;2024-02-15T04:15:14;7.40;;;2.43;;
1885;SDS011;943;51.568;6.998;2024-02-15T04:17:49;6.27;;;2.13;;
1885;SDS011;943;51.568;6.998;2024-02-15T04:20:27;3.37;;;1.73;;
1885;SDS011;943;51.568;6.998;2024-02-15T04:22:57;2.27;;;1.20;;
1885;SDS011;943;51.568;6.998;2024-02-15T04:25:28;2.90;;;1.53;;
1885;SDS011;943;51.568;6.998;2024-02-15T04:28:01;3.30;;;1.30;;
1885;SDS011;943;51.568;6.998;2024-02-15T04:30:36;2.60;;;1.30;;
1885;SDS011;943;51.568;6.998;2024-02-15T04:33:09;4.07;;;2.17;;
1885;SDS011;943;51.568;6.998;2024-02-15T04:35:44;6.00;;;2.83;;
1885;SDS011;943;51.568;6.998;2024-02-15T04:38:17;2.90;;;1.43;;
1885;SDS011;943;51.568;6.998;2024-02-15T04:40:48;3.67;;;2.20;;
1885;SDS011;943;51.568;6.998;2024-02-15T04:43:17;4.33;;;3.17;;
1885;SDS011;943;51.568;6.998;2024-02-15T04:45:49;3.80;;;1.70;;
1885;SDS011;943;51.568;6.998;2024-02-15T04:48:19;2.87;;;1.63;;
1885;SDS011;943;51.568;6.998;2024-02-15T04:50:50;6.13;;;1.77;;
1885;SDS011;943;51.568;6.998;2024-02-15T04:53:22;2.70;;;1.17;;
1885;SDS011;943;51.568;6.998;2024-02-15T04:55:50;3.10;;;2.07;;
1885;SDS011;943;51.568;6.998;2024-02-15T04:58:19;2.70;;;1.40;;
1885;SDS011;943;51.568;6.998;2024-02-15T05:00:48;4.03;;;1.33;;
1885;SDS011;943;51.568;6.998;2024-02-15T05:03:27;3.40;;;2.40;;
1885;SDS011;943;51.568;6.998;2024-02-15T05:05:58;3.70;;;2.33;;
1885;SDS011;943;51.568;6.998;2024-02-15T05:08:28;2.30;;;0.90;;
1885;SDS011;943;51.568;6.998;2024-02-15T05:11:02;3.33;;;1.73;;
1885;SDS011;943;51.568;6.998;2024-02-15T05:13:45;3.73;;;2.10;;
1885;SDS011;943;51.568;6.998;2024-02-15T05:16:15;4.80;;;1.73;;
1885;SDS011;943;51.568;6.998;2024-02-15T05:18:45;2.80;;;1.20;;
1885;SDS011;943;51.568;6.998;2024-02-15T05:21:17;3.57;;;1.50;;
1885;SDS011;943;51.568;6.998;2024-02-15T05:23:47;4.73;;;2.83;;
1885;SDS011;943;51.568;6.998;2024-02-15T05:26:19;5.37;;;2.17;;
1885;SDS011;943;51.568;6.998;2024-02-15T05:28:52;7.83;;;2.00;;
1885;SDS011;943;51.568;6.998;2024-02-15T05:31:20;7.17;;;2.37;;
1885;SDS011;943;51.568;6.998;2024-02-15T05:33:55;5.87;;;2.53;;
1885;SDS011;943;51.568;6.998;2024-02-15T05:36:26;5.93;;;3.00;;
1885;SDS011;943;51.568;6.998;2024-02-15T05:38:58;2.80;;;1.77;;
1885;SDS011;943;51.568;6.998;2024-02-15T05:41:30;8.80;;;1.93;;
1885;SDS011;943;51.568;6.998;2024-02-15T05:44:02;3.07;;;1.40;;
1885;SDS011;943;51.568;6.998;2024-02-15T05:46:47;4.10;;;3.30;;
1885;SDS011;943;51.568;6.998;2024-02-15T05:49:17;3.57;;;1.93;;
1885;SDS011;943;51.568;6.998;2024-02-15T05:51:52;4.10;;;1.70;;
1885;SDS011;943;51.568;6.998;2024-02-15T05:54:23;3.07;;;1.83;;
1885;SDS011;943;51.568;6.998;2024-02-15T05:56:54;2.67;;;1.43;;
1885;SDS011;943;51.568;6.998;2024-02-15T05:59:31;2.63;;;1.10;;
1885;SDS011;943;51.568;6.998;2024-02-15T06:02:03;4.93;;;1.50;;
1885;SDS011;943;51.568;6.998;2024-02-15T06:04:31;2.33;;;1.23;;
1885;SDS011;943;51.568;6.998;2024-02-15T06:07:02;2.43;;;0.90;;
1885;SDS011;943;51.568;6.998;2024-02-15T06:09:32;3.70;;;1.27;;
1885;SDS011;943;51.568;6.998;2024-02-15T06:12:08;2.73;;;1.07;;
1885;SDS011;943;51.568;6.998;2024-02-15T06:14:37;3.10;;;1.53;;
1885;SDS011;943;51.568;6.998;2024-02-15T06:17:07;3.63;;;1.77;;
1885;SDS011;943;51.568;6.998;2024-02-15T06:19:38;3.60;;;1.40;;
1885;SDS011;943;51.568;6.998;2024-02-15T06:22:07;2.53;;;1.10;;
1885;SDS011;943;51.568;6.998;2024-02-15T06:24:38;3.20;;;1.83;;
1885;SDS011;943;51.568;6.998;2024-02-15T06:27:09;5.10;;;1.40;;
1885;SDS011;943;51.568;6.998;2024-02-15T06:29:43;4.80;;;1.90;;
1885;SDS011;943;51.568;6.998;2024-02-15T06:33:46;2.67;;;1.10;;
1885;SDS011;943;51.568;6.998;2024-02-15T06:37:47;2.80;;;1.40;;
1885;SDS011;943;51.568;6.998;2024-02-15T06:41:48;5.93;;;3.17;;
1885;SDS011;943;51.568;6.998;2024-02-15T06:44:18;3.77;;;1.50;;
1885;SDS011;943;51.568;6.998;2024-02-15T06:46:47;5.43;;;2.37;;
1885;SDS011;943;51.568;6.998;2024-02-15T06:49:18;4.20;;;2.10;;
1885;SDS011;943;51.568;6.998;2024-02-15T06:51:49;2.87;;;1.13;;
1885;SDS011;943;51.568;6.998;2024-02-15T06:54:18;4.87;;;1.67;;
1885;SDS011;943;51.568;6.998;2024-02-15T06:56:48;3.30;;;2.13;;
1885;SDS011;943;51.568;6.998;2024-02-15T06:59:19;6.90;;;2.50;;
1885;SDS011;943;51.568;6.998;2024-02-15T07:01:53;1.97;;;0.90;;
1885;SDS011;943;51.568;6.998;2024-02-15T07:04:29;2.93;;;1.47;;
1885;SDS011;943;51.568;6.998;2024-02-15T07:07:00;11.70;;;2.40;;
1885;SDS011;943;51.568;6.998;2024-02-15T07:09:31;4.10;;;2.17;;
1885;SDS011;943;51.568;6.998;2024-02-15T07:12:00;4.40;;;2.40;;
1885;SDS011;943;51.568;6.998;2024-02-15T07:14:29;7.67;;;2.60;;
1885;SDS011;943;51.568;6.998;2024-02-15T07:17:00;3.00;;;1.80;;
1885;SDS011;943;51.568;6.998;2024-02-15T07:19:29;7.83;;;1.90;;
1885;SDS011;943;51.568;6.998;2024-02-15T07:22:12;8.63;;;3.70;;
1885;SDS011;943;51.568;6.998;2024-02-15T07:24:41;5.67;;;2.23;;
1885;SDS011;943;51.568;6.998;2024-02-15T07:27:10;3.13;;;1.77;;
1885;SDS011;943;51.568;6.998;2024-02-15T07:29:40;3.53;;;1.93;;
1885;SDS011;943;51.568;6.998;2024-02-15T07:32:08;3.50;;;1.23;;
1885;SDS011;943;51.568;6.998;2024-02-15T07:34:39;2.20;;;1.27;;
1885;SDS011;943;51.568;6.998;2024-02-15T07:37:12;2.40;;;1.40;;
1885;SDS011;943;51.568;6.998;2024-02-15T07:39:43;11.10;;;1.30;;
1885;SDS011;943;51.568;6.998;2024-02-15T07:42:12;3.57;;;1.07;;
1885;SDS011;943;51.568;6.998;2024-02-15T07:44:41;2.50;;;1.03;;
1885;SDS011;943;51.568;6.998;2024-02-15T07:47:11;2.37;;;1.10;;
1885;SDS011;943;51.568;6.998;2024-02-15T07:49:41;2.87;;;1.47;;
1885;SDS011;943;51.568;6.998;2024-02-15T07:52:11;3.27;;;1.20;;
1885;SDS011;943;51.568;6.998;2024-02-15T07:54:41;3.20;;;1.27;;
1885;SDS011;943;51.568;6.998;2024-02-15T07:57:10;3.10;;;1.70;;
1885;SDS011;943;51.568;6.998;2024-02-15T07:59:39;5.10;;;1.50;;
1885;SDS011;943;51.568;6.998;2024-02-15T08:02:10;2.30;;;1.03;;
1885;SDS011;943;51.568;6.998;2024-02-15T08:04:49;3.17;;;1.37;;
1885;SDS011;943;51.568;6.998;2024-02-15T08:07:22;2.10;;;0.93;;
1885;SDS011;943;51.568;6.998;2024-02-15T08:09:51;5.80;;;1.57;;
1885;SDS011;943;51.568;6.998;2024-02-15T08:12:21;5.50;;;1.60;;
1885;SDS011;943;51.568;6.998;2024-02-15T08:14:50;5.43;;;2.60;;
1885;SDS011;943;51.568;6.998;2024-02-15T08:17:19;3.37;;;1.60;;
1885;SDS011;943;51.568;6.998;2024-02-15T08:19:47;2.73;;;1.63;;
1885;SDS011;943;51.568;6.998;2024-02-15T08:22:18;2.80;;;1.27;;
1885;SDS011;943;51.568;6.998;2024-02-15T08:24:52;3.00;;;1.77;;
1885;SDS011;943;51.568;6.998;2024-02-15T08:27:22;8.23;;;1.83;;
1885;SDS011;943;51.568;6.998;2024-02-15T08:29:51;3.27;;;2.17;;
1885;SDS011;943;51.568;6.998;2024-02-15T08:32:20;5.97;;;2.50;;
1885;SDS011;943;51.568;6.998;2024-02-15T08:34:49;3.30;;;2.03;;
1885;SDS011;943;51.568;6.998;2024-02-15T08:37:19;3.83;;;2.00;;
1885;SDS011;943;51.568;6.998;2024-02-15T08:39:47;4.43;;;2.17;;
1885;SDS011;943;51.568;6.998;2024-02-15T08:42:18;4.20;;;1.93;;
1885;SDS011;943;51.568;6.998;2024-02-15T08:44:52;4.53;;;1.53;;
1885;SDS011;943;51.568;6.998;2024-02-15T08:47:20;3.30;;;1.90;;
1885;SDS011;943;51.568;6.998;2024-02-15T08:49:50;3.10;;;1.70;;
1885;SDS011;943;51.568;6.998;2024-02-15T08:52:19;3.67;;;2.07;;
1885;SDS011;943;51.568;6.998;2024-02-15T08:54:48;3.47;;;1.67;;
1885;SDS011;943;51.568;6.998;2024-02-15T08:57:18;6.73;;;2.10;;
1885;SDS011;943;51.568;6.998;2024-02-15T08:59:47;3.70;;;1.47;;
1885;SDS011;943;51.568;6.998;2024-02-15T09:02:16;2.87;;;1.53;;
1885;SDS011;943;51.568;6.998;2024-02-15T09:04:50;3.13;;;1.53;;
1885;SDS011;943;51.568;6.998;2024-02-15T09:07:19;3.40;;;1.50;;
1885;SDS011;943;51.568;6.998;2024-02-15T09:09:50;2.17;;;1.17;;
1885;SDS011;943;51.568;6.998;2024-02-15T09:12:19;6.03;;;2.60;;
1885;SDS011;943;51.568;6.998;2024-02-15T09:14:49;2.10;;;0.70;;
1885;SDS011;943;51.568;6.998;2024-02-15T09:17:19;4.70;;;1.27;;
1885;SDS011;943;51.568;6.998;2024-02-15T09:19:53;3.37;;;1.33;;
1885;SDS011;943;51.568;6.998;2024-02-15T09:22:23;12.57;;;1.57;;
1885;SDS011;943;51.568;6.998;2024-02-15T09:24:52;2.90;;;1.37;;
1885;SDS011;943;51.568;6.998;2024-02-15T09:27:22;3.27;;;1.43;;
1885;SDS011;943;51.568;6.998;2024-02-15T09:29:50;2.73;;;1.00;;
1885;SDS011;943;51.568;6.998;2024-02-15T09:32:19;3.60;;;1.73;;
1885;SDS011;943;51.568;6.998;2024-02-15T09:34:50;2.33;;;1.00;;
1885;SDS011;943;51.568;6.998;2024-02-15T09:37:18;2.83;;;2.10;;
1885;SDS011;943;51.568;6.998;2024-02-15T09:39:48;6.13;;;1.60;;
1885;SDS011;943;51.568;6.998;2024-02-15T09:42:17;3.50;;;1.70;;
1885;SDS011;943;51.568;6.998;2024-02-15T09:44:46;2.97;;;1.33;;
1885;SDS011;943;51.568;6.998;2024-02-15T09:47:15;4.00;;;1.83;;
1885;SDS011;943;51.568;6.998;2024-02-15T09:49:49;3.00;;;1.07;;
1885;SDS011;943;51.568;6.998;2024-02-15T09:52:19;3.00;;;1.23;;
1885;SDS011;943;51.568;6.998;2024-02-15T09:54:49;6.80;;;2.27;;
1885;SDS011;943;51.568;6.998;2024-02-15T09:57:22;2.27;;;1.10;;
1885;SDS011;943;51.568;6.998;2024-02-15T09:59:51;3.40;;;1.20;;
1885;SDS011;943;51.568;6.998;2024-02-15T10:02:22;2.60;;;1.50;;
1885;SDS011;943;51.568;6.998;2024-02-15T10:04:54;7.50;;;2.10;;
1885;SDS011;943;51.568;6.998;2024-02-15T10:07:27;2.30;;;1.20;;
1885;SDS011;943;51.568;6.998;2024-02-15T10:09:56;2.40;;;1.10;;
1885;SDS011;943;51.568;6.998;2024-02-15T10:12:49;2.00;;;0.80;;
1885;SDS011;943;51.568;6.998;2024-02-15T10:15:30;3.60;;;1.70;;
1885;SDS011;943;51.568;6.998;2024-02-15T10:20:42;3.17;;;1.77;;
1885;SDS011;943;51.568;6.998;2024-02-15T10:23:25;2.60;;;1.07;;
1885;SDS011;943;51.568;6.998;2024-02-15T10:25:54;2.33;;;1.00;;
1885;SDS011;943;51.568;6.998;2024-02-15T10:28:27;2.30;;;1.00;;
1885;SDS011;943;51.568;6.998;2024-02-15T10:30:58;4.47;;;1.70;;
1885;SDS011;943;51.568;6.998;2024-02-15T10:33:41;2.50;;;1.33;;
1885;SDS011;943;51.568;6.998;2024-02-15T10:36:10;2.40;;;1.50;;
1885;SDS011;943;51.568;6.998;2024-02-15T10:38:51;3.57;;;1.27;;
1885;SDS011;943;51.568;6.998;2024-02-15T10:41:21;3.40;;;2.10;;
1885;SDS011;943;51.568;6.998;2024-02-15T10:43:57;2.73;;;1.20;;
1885;SDS011;943;51.568;6.998;2024-02-15T11:14:26;4.77;;;1.30;;
1885;SDS011;943;51.568;6.998;2024-02-15T11:23:01;2.80;;;1.53;;
1885;SDS011;943;51.568;6.998;2024-02-15T11:25:32;2.20;;;0.90;;
1885;SDS011;943;51.568;6.998;2024-02-15T11:31:53;2.20;;;0.80;;
1885;SDS011;943;51.568;6.998;2024-02-15T11:40:21;8.10;;;1.20;;
1885;SDS011;943;51.568;6.998;2024-02-15T11:43:09;4.30;;;2.17;;
1885;SDS011;943;51.568;6.998;2024-02-15T11:46:25;3.20;;;1.17;;
1885;SDS011;943;51.568;6.998;2024-02-15T11:49:03;4.33;;;2.70;;
1885;SDS011;943;51.568;6.998;2024-02-15T11:51:35;2.77;;;1.77;;
1885;SDS011;943;51.568;6.998;2024-02-15T11:54:11;1.87;;;0.70;;
1885;SDS011;943;51.568;6.998;2024-02-15T11:56:51;2.20;;;0.70;;
1885;SDS011;943;51.568;6.998;2024-02-15T11:59:49;1.90;;;0.70;;
1885;SDS011;943;51.568;6.998;2024-02-15T12:04:03;3.60;;;1.57;;
1885;SDS011;943;51.568;6.998;2024-02-15T12:08:19;5.50;;;1.03;;
1885;SDS011;943;51.568;6.998;2024-02-15T12:12:24;2.80;;;1.20;;
1885;SDS011;943;51.568;6.998;2024-02-15T12:16:38;2.40;;;0.93;;
1885;SDS011;943;51.568;6.998;2024-02-15T12:21:00;2.60;;;1.43;;
1885;SDS011;943;51.568;6.998;2024-02-15T12:23:34;3.20;;;1.23;;
1885;SDS011;943;51.568;6.998;2024-02-15T12:26:08;3.73;;;1.50;;
1885;SDS011;943;51.568;6.998;2024-02-15T12:28:37;2.00;;;0.80;;
1885;SDS011;943;51.568;6.998;2024-02-15T12:31:13;3.20;;;1.60;;
1885;SDS011;943;51.568;6.998;2024-02-15T12:33:43;4.57;;;1.00;;
1885;SDS011;943;51.568;6.998;2024-02-15T12:36:41;4.10;;;1.00;;
1885;SDS011;943;51.568;6.998;2024-02-15T12:39:40;2.30;;;1.13;;
1885;SDS011;943;51.568;6.998;2024-02-15T12:42:11;3.57;;;1.50;;
1885;SDS011;943;51.568;6.998;2024-02-15T12:44:44;2.77;;;1.53;;
1885;SDS011;943;51.568;6.998;2024-02-15T12:47:19;2.40;;;1.10;;
1885;SDS011;943;51.568;6.998;2024-02-15T12:49:50;2.83;;;1.30;;
1885;SDS011;943;51.568;6.998;2024-02-15T12:52:40;2.10;;;0.80;;
1885;SDS011;943;51.568;6.998;2024-02-15T12:55:42;2.67;;;0.93;;
1885;SDS011;943;51.568;6.998;2024-02-15T13:06:36;4.63;;;0.67;;
1885;SDS011;943;51.568;6.998;2024-02-15T13:09:07;2.33;;;0.90;;
1885;SDS011;943;51.568;6.998;2024-02-15T13:11:43;2.20;;;1.00;;
1885;SDS011;943;51.568;6.998;2024-02-15T13:14:17;2.40;;;0.97;;
1885;SDS011;943;51.568;6.998;2024-02-15T13:16:47;2.20;;;1.03;;
1885;SDS011;943;51.568;6.998;2024-02-15T13:19:18;5.00;;;1.03;;
1885;SDS011;943;51.568;6.998;2024-02-15T13:21:51;2.10;;;0.80;;
1885;SDS011;943;51.568;6.998;2024-02-15T13:24:26;2.93;;;1.43;;
1885;SDS011;943;51.568;6.998;2024-02-15T13:26:55;3.60;;;0.90;;
1885;SDS011;943;51.568;6.998;2024-02-15T13:29:25;2.40;;;0.90;;
1885;SDS011;943;51.568;6.998;2024-02-15T13:31:55;2.33;;;1.03;;
1885;SDS011;943;51.568;6.998;2024-02-15T13:34:24;2.40;;;1.60;;
1885;SDS011;943;51.568;6.998;2024-02-15T13:36:53;3.70;;;0.80;;
1885;SDS011;943;51.568;6.998;2024-02-15T13:39:23;3.10;;;1.13;;
1885;SDS011;943;51.568;6.998;2024-02-15T13:42:02;2.23;;;0.83;;
1885;SDS011;943;51.568;6.998;2024-02-15T13:44:31;1.80;;;0.70;;
1885;SDS011;943;51.568;6.998;2024-02-15T13:46:59;4.80;;;0.90;;
1885;SDS011;943;51.568;6.998;2024-02-15T13:49:28;2.10;;;1.03;;
1885;SDS011;943;51.568;6.998;2024-02-15T13:52:02;2.00;;;0.83;;
1885;SDS011;943;51.568;6.998;2024-02-15T13:54:34;1.90;;;0.60;;
1885;SDS011;943;51.568;6.998;2024-02-15T13:57:02;2.83;;;1.20;;
1885;SDS011;943;51.568;6.998;2024-02-15T13:59:31;8.50;;;1.20;;
1885;SDS011;943;51.568;6.998;2024-02-15T14:02:02;3.20;;;1.20;;
1885;SDS011;943;51.568;6.998;2024-02-15T14:04:32;2.70;;;1.00;;
1885;SDS011;943;51.568;6.998;2024-02-15T14:07:03;3.10;;;0.80;;
1885;SDS011;943;51.568;6.998;2024-02-15T14:09:31;2.00;;;0.80;;
1885;SDS011;943;51.568;6.998;2024-02-15T14:12:01;2.43;;;0.80;;
1885;SDS011;943;51.568;6.998;2024-02-15T14:14:35;2.30;;;0.83;;
1885;SDS011;943;51.568;6.998;2024-02-15T14:17:07;2.30;;;0.83;;
1885;SDS011;943;51.568;6.998;2024-02-15T14:19:37;2.60;;;0.90;;
1885;SDS011;943;51.568;6.998;2024-02-15T14:22:06;3.20;;;1.13;;
1885;SDS011;943;51.568;6.998;2024-02-15T14:24:41;2.27;;;0.80;;
1885;SDS011;943;51.568;6.998;2024-02-15T14:27:13;3.03;;;0.80;;
1885;SDS011;943;51.568;6.998;2024-02-15T14:29:44;4.63;;;1.20;;
1885;SDS011;943;51.568;6.998;2024-02-15T14:33:45;6.50;;;1.00;;
1885;SDS011;943;51.568;6.998;2024-02-15T14:36:19;2.30;;;1.20;;
1885;SDS011;943;51.568;6.998;2024-02-15T14:38:49;2.20;;;1.03;;
1885;SDS011;943;51.568;6.998;2024-02-15T14:41:22;9.03;;;1.70;;
1885;SDS011;943;51.568;6.998;2024-02-15T14:43:58;2.30;;;0.80;;
1885;SDS011;943;51.568;6.998;2024-02-15T14:46:27;5.57;;;2.33;;
1885;SDS011;943;51.568;6.998;2024-02-15T14:49:00;2.27;;;0.93;;
1885;SDS011;943;51.568;6.998;2024-02-15T14:51:31;3.50;;;1.10;;
1885;SDS011;943;51.568;6.998;2024-02-15T14:54:06;6.90;;;1.20;;
1885;SDS011;943;51.568;6.998;2024-02-15T14:56:36;2.73;;;0.80;;
1885;SDS011;943;51.568;6.998;2024-02-15T14:59:07;3.90;;;1.10;;
1885;SDS011;943;51.568;6.998;2024-02-15T15:01:38;2.13;;;1.10;;
1885;SDS011;943;51.568;6.998;2024-02-15T15:04:09;2.20;;;0.70;;
1885;SDS011;943;51.568;6.998;2024-02-15T15:06:39;2.60;;;0.63;;
1885;SDS011;943;51.568;6.998;2024-02-15T15:10:48;4.57;;;1.53;;
1885;SDS011;943;51.568;6.998;2024-02-15T15:14:50;1.70;;;0.50;;
1885;SDS011;943;51.568;6.998;2024-02-15T15:17:19;2.70;;;0.80;;
1885;SDS011;943;51.568;6.998;2024-02-15T15:19:49;8.07;;;1.70;;
1885;SDS011;943;51.568;6.998;2024-02-15T15:22:19;1.97;;;0.60;;
1885;SDS011;943;51.568;6.998;2024-02-15T15:24:51;2.43;;;1.00;;
1885;SDS011;943;51.568;6.998;2024-02-15T15:27:20;2.20;;;0.60;;
1885;SDS011;943;51.568;6.998;2024-02-15T15:29:50;3.20;;;1.77;;
1885;SDS011;943;51.568;6.998;2024-02-15T15:32:19;4.37;;;1.90;;
1885;SDS011;943;51.568;6.998;2024-02-15T15:34:51;3.50;;;0.80;;
1885;SDS011;943;51.568;6.998;2024-02-15T15:37:21;2.27;;;1.20;;
1885;SDS011;943;51.568;6.998;2024-02-15T15:39:52;2.50;;;0.90;;
1885;SDS011;943;51.568;6.998;2024-02-15T15:42:24;2.20;;;0.77;;
1885;SDS011;943;51.568;6.998;2024-02-15T15:44:54;2.97;;;0.70;;
1885;SDS011;943;51.568;6.998;2024-02-15T15:47:23;5.40;;;1.30;;
1885;SDS011;943;51.568;6.998;2024-02-15T15:49:53;3.67;;;1.87;;
1885;SDS011;943;51.568;6.998;2024-02-15T15:52:28;2.00;;;0.80;;
1885;SDS011;943;51.568;6.998;2024-02-15T15:54:56;2.30;;;0.90;;
1885;SDS011;943;51.568;6.998;2024-02-15T15:57:26;2.77;;;0.90;;
1885;SDS011;943;51.568;6.998;2024-02-15T15:59:57;2.20;;;0.80;;
1885;SDS011;943;51.568;6.998;2024-02-15T16:02:26;2.00;;;0.90;;
1885;SDS011;943;51.568;6.998;2024-02-15T16:04:55;2.00;;;0.60;;
1885;SDS011;943;51.568;6.998;2024-02-15T16:07:28;3.30;;;0.70;;
1885;SDS011;943;51.568;6.998;2024-02-15T16:09:57;3.53;;;1.27;;
1885;SDS011;943;51.568;6.998;2024-02-15T16:12:27;2.70;;;1.20;;
1885;SDS011;943;51.568;6.998;2024-02-15T16:14:56;8.47;;;3.43;;
1885;SDS011;943;51.568;6.998;2024-02-15T16:17:26;2.27;;;0.90;;
1885;SDS011;943;51.568;6.998;2024-02-15T16:20:02;3.50;;;1.37;;
1885;SDS011;943;51.568;6.998;2024-02-15T16:22:41;2.60;;;1.33;;
1885;SDS011;943;51.568;6.998;2024-02-15T16:25:10;2.70;;;1.27;;
1885;SDS011;943;51.568;6.998;2024-02-15T16:27:40;2.10;;;0.90;;
1885;SDS011;943;51.568;6.998;2024-02-15T16:30:15;2.10;;;0.77;;
1885;SDS011;943;51.568;6.998;2024-02-15T16:32:45;2.80;;;1.03;;
1885;SDS011;943;51.568;6.998;2024-02-15T16:35:14;2.50;;;1.10;;
1885;SDS011;943;51.568;6.998;2024-02-15T16:37:50;6.40;;;1.30;;
1885;SDS011;943;51.568;6.998;2024-02-15T16:40:24;20.17;;;1.10;;
1885;SDS011;943;51.568;6.998;2024-02-15T16:42:58;1.90;;;0.60;;
1885;SDS011;943;51.568;6.998;2024-02-15T16:45:32;2.00;;;0.70;;
1885;SDS011;943;51.568;6.998;2024-02-15T16:48:05;3.47;;;1.20;;
1885;SDS011;943;51.568;6.998;2024-02-15T16:50:39;2.53;;;0.90;;
1885;SDS011;943;51.568;6.998;2024-02-15T16:53:09;2.90;;;1.40;;
1885;SDS011;943;51.568;6.998;2024-02-15T16:55:38;2.20;;;1.13;;
1885;SDS011;943;51.568;6.998;2024-02-15T16:58:09;2.20;;;0.90;;
1885;SDS011;943;51.568;6.998;2024-02-15T17:00:41;1.90;;;0.70;;
1885;SDS011;943;51.568;6.998;2024-02-15T17:03:13;4.40;;;1.00;;
1885;SDS011;943;51.568;6.998;2024-02-15T17:05:45;2.30;;;0.90;;
1885;SDS011;943;51.568;6.998;2024-02-15T17:08:14;2.93;;;1.20;;
1885;SDS011;943;51.568;6.998;2024-02-15T17:10:43;2.00;;;0.93;;